createdAt,value
2023-05-17T00:00:03.040Z,10.40
2023-05-17T00:02:30.723Z,10.18
2023-05-17T00:04:58.523Z,10.07
2023-05-17T00:07:27.579Z,10.23
2023-05-17T00:09:55.538Z,10.23
2023-05-17T00:12:23.454Z,10.07
2023-05-17T00:14:51.111Z,10.02
2023-05-17T00:17:18.750Z,10.18
2023-05-17T00:19:46.380Z,10.25
2023-05-17T00:22:14.093Z,9.70
2023-05-17T00:24:43.061Z,12.88
2023-05-17T00:27:10.833Z,10.45
2023-05-17T00:29:38.496Z,10.48
2023-05-17T00:32:06.958Z,10.35
2023-05-17T00:34:34.821Z,11.00
2023-05-17T00:37:02.765Z,9.60
2023-05-17T00:39:30.419Z,9.15
2023-05-17T00:41:59.459Z,10.82
2023-05-17T00:44:27.092Z,10.23
2023-05-17T00:46:54.804Z,10.43
2023-05-17T00:49:22.659Z,9.77
2023-05-17T00:51:50.346Z,9.35
2023-05-17T00:54:17.953Z,9.20
2023-05-17T00:56:45.976Z,10.32
2023-05-17T00:59:15.163Z,9.73
2023-05-17T01:01:45.252Z,10.18
2023-05-17T01:04:13.048Z,9.90
2023-05-17T01:06:41.136Z,9.98
2023-05-17T01:09:09.045Z,9.85
2023-05-17T01:11:43.447Z,9.35
2023-05-17T01:14:24.068Z,9.40
2023-05-17T01:16:57.193Z,10.32
2023-05-17T01:19:42.541Z,9.90
2023-05-17T01:22:17.379Z,10.20
2023-05-17T01:24:52.115Z,10.35
2023-05-17T01:27:22.015Z,9.27
2023-05-17T01:29:50.836Z,9.43
2023-05-17T01:32:19.083Z,10.02
2023-05-17T01:34:46.805Z,10.23
2023-05-17T01:37:14.476Z,11.68
2023-05-17T01:39:42.501Z,10.20
2023-05-17T01:42:15.177Z,10.02
2023-05-17T01:44:54.440Z,9.48
2023-05-17T01:47:27.462Z,10.65
2023-05-17T01:49:55.363Z,11.05
2023-05-17T01:52:28.922Z,10.25
2023-05-17T01:55:03.322Z,10.13
2023-05-17T01:57:34.443Z,9.85
2023-05-17T02:00:06.087Z,9.77
2023-05-17T02:02:33.771Z,11.32
2023-05-17T02:05:01.444Z,9.07
2023-05-17T02:07:29.221Z,10.10
2023-05-17T02:09:56.860Z,9.73
2023-05-17T02:12:25.377Z,9.10
2023-05-17T02:14:53.056Z,9.60
2023-05-17T02:17:22.136Z,9.68
2023-05-17T02:19:49.861Z,9.65
2023-05-17T02:22:17.566Z,9.02
2023-05-17T02:24:46.703Z,9.27
2023-05-17T02:27:14.374Z,8.73
2023-05-17T02:29:42.745Z,9.23
2023-05-17T02:32:11.035Z,11.13
2023-05-17T02:34:40.058Z,9.48
2023-05-17T02:37:07.680Z,9.43
2023-05-17T02:39:35.406Z,9.40
2023-05-17T02:42:03.072Z,8.98
2023-05-17T02:44:30.762Z,8.77
2023-05-17T02:46:58.419Z,9.52
2023-05-17T02:49:26.162Z,8.88
2023-05-17T02:51:55.209Z,9.07
2023-05-17T02:54:22.925Z,9.48
2023-05-17T02:57:42.887Z,9.15
2023-05-17T03:00:11.093Z,8.80
2023-05-17T03:02:38.809Z,9.18
2023-05-17T03:05:08.336Z,9.55
2023-05-17T03:07:36.234Z,9.60
2023-05-17T03:10:03.908Z,9.10
2023-05-17T03:12:31.560Z,8.88
2023-05-17T03:15:00.629Z,9.32
2023-05-17T03:17:28.439Z,9.38
2023-05-17T03:19:56.643Z,8.73
2023-05-17T03:22:24.388Z,9.10
2023-05-17T03:24:52.053Z,9.18
2023-05-17T03:27:19.756Z,9.30
2023-05-17T03:29:47.437Z,9.55
2023-05-17T03:32:16.504Z,8.85
2023-05-17T03:34:44.197Z,8.70
2023-05-17T03:37:11.915Z,9.25
2023-05-17T03:39:39.558Z,8.77
2023-05-17T03:42:07.447Z,9.35
2023-05-17T03:44:35.104Z,9.18
2023-05-17T03:47:02.808Z,9.60
2023-05-17T03:49:31.855Z,8.25
2023-05-17T03:51:59.557Z,8.10
2023-05-17T03:54:27.289Z,8.93
2023-05-17T03:56:54.985Z,8.50
2023-05-17T03:59:22.700Z,8.90
2023-05-17T04:01:50.562Z,8.57
2023-05-17T04:04:18.233Z,9.00
2023-05-17T04:06:47.210Z,8.70
2023-05-17T04:09:15.562Z,9.13
2023-05-17T04:11:43.567Z,8.73
2023-05-17T04:14:11.213Z,8.82
2023-05-17T04:16:38.853Z,9.27
2023-05-17T04:19:06.721Z,8.55
2023-05-17T04:21:34.452Z,8.50
2023-05-17T04:24:03.425Z,8.43
2023-05-17T04:26:32.261Z,8.73
2023-05-17T04:28:59.933Z,8.75
2023-05-17T04:31:27.715Z,8.68
2023-05-17T04:33:55.399Z,9.05
2023-05-17T04:36:23.095Z,8.52
2023-05-17T04:38:50.828Z,8.90
2023-05-17T04:41:19.853Z,8.48
2023-05-17T04:43:47.615Z,8.95
2023-05-17T04:46:15.273Z,8.60
2023-05-17T04:48:42.997Z,9.25
2023-05-17T04:51:10.822Z,8.52
2023-05-17T04:53:38.434Z,8.02
2023-05-17T04:56:06.920Z,8.57
2023-05-17T04:58:36.010Z,7.65
2023-05-17T05:01:03.816Z,8.63
2023-05-17T05:03:31.525Z,7.97
2023-05-17T05:05:59.224Z,7.95
2023-05-17T05:08:26.898Z,8.25
2023-05-17T05:10:54.557Z,8.38
2023-05-17T05:13:22.776Z,8.85
2023-05-17T05:15:51.914Z,8.45
2023-05-17T05:18:19.679Z,8.73
2023-05-17T05:20:47.582Z,8.57
2023-05-17T05:23:15.255Z,9.27
2023-05-17T05:25:44.508Z,8.18
2023-05-17T05:28:12.269Z,8.15
2023-05-17T05:30:40.410Z,8.75
2023-05-17T05:33:09.534Z,8.30
2023-05-17T05:35:37.324Z,9.27
2023-05-17T05:38:04.935Z,8.43
2023-05-17T05:40:32.866Z,8.75
2023-05-17T05:43:00.602Z,8.55
2023-05-17T05:45:28.243Z,8.20
2023-05-17T05:47:55.951Z,7.80
2023-05-17T05:50:25.071Z,8.52
2023-05-17T05:52:56.311Z,8.15
2023-05-17T05:55:31.476Z,8.85
2023-05-17T05:57:59.149Z,8.27
2023-05-17T06:00:27.235Z,8.50
2023-05-17T06:02:57.298Z,8.35
2023-05-17T06:05:26.703Z,8.07
2023-05-17T06:07:54.388Z,8.55
2023-05-17T06:10:22.454Z,8.80
2023-05-17T06:12:50.331Z,8.32
2023-05-17T06:15:18.217Z,8.02
2023-05-17T06:17:46.090Z,8.82
2023-05-17T06:20:15.082Z,8.52
2023-05-17T06:22:44.097Z,8.32
2023-05-17T06:25:12.135Z,8.40
2023-05-17T06:27:39.913Z,8.32
2023-05-17T06:30:08.823Z,8.00
2023-05-17T06:32:36.497Z,8.15
2023-05-17T06:35:04.738Z,8.70
2023-05-17T06:37:33.073Z,8.02
2023-05-17T06:40:10.537Z,8.15
2023-05-17T06:42:43.066Z,8.35
2023-05-17T06:45:12.032Z,8.52
2023-05-17T06:47:41.834Z,8.75
2023-05-17T06:50:10.532Z,8.75
2023-05-17T06:52:38.260Z,8.90
2023-05-17T06:55:09.290Z,8.07
2023-05-17T06:57:37.580Z,8.40
2023-05-17T07:00:10.506Z,8.07
2023-05-17T07:02:38.318Z,8.27
2023-05-17T07:05:07.243Z,9.45
2023-05-17T07:07:35.093Z,8.25
2023-05-17T07:10:02.763Z,9.48
2023-05-17T07:12:31.785Z,9.40
2023-05-17T07:14:59.452Z,9.27
2023-05-17T07:17:27.151Z,8.80
2023-05-17T07:19:55.035Z,9.23
2023-05-17T07:22:22.890Z,9.00
2023-05-17T07:24:51.041Z,9.50
2023-05-17T07:27:18.756Z,9.43
2023-05-17T07:29:47.856Z,9.25
2023-05-17T07:32:16.059Z,8.93
2023-05-17T07:34:43.765Z,8.45
2023-05-17T07:37:11.488Z,8.60
2023-05-17T07:39:39.226Z,8.80
2023-05-17T07:42:07.809Z,8.93
2023-05-17T07:44:35.654Z,8.80
2023-05-17T07:47:04.857Z,9.93
2023-05-17T07:49:32.648Z,9.52
2023-05-17T07:52:00.329Z,9.48
2023-05-17T07:54:28.225Z,9.07
2023-05-17T07:56:56.157Z,9.40
2023-05-17T07:59:23.859Z,9.95
2023-05-17T08:01:51.790Z,9.57
2023-05-17T08:04:20.954Z,9.80
2023-05-17T08:06:50.057Z,9.93
2023-05-17T08:09:18.015Z,9.50
2023-05-17T08:11:47.041Z,10.07
2023-05-17T08:14:15.688Z,9.73
2023-05-17T08:16:43.461Z,9.35
2023-05-17T08:19:14.003Z,9.15
2023-05-17T08:21:43.764Z,9.65
2023-05-17T08:24:11.669Z,8.68
2023-05-17T08:26:39.359Z,8.70
2023-05-17T08:29:07.190Z,12.07
2023-05-17T08:31:34.868Z,10.65
2023-05-17T08:34:03.295Z,10.95
2023-05-17T08:36:31.036Z,13.30
2023-05-17T08:39:00.049Z,10.10
2023-05-17T08:41:27.718Z,10.25
2023-05-17T08:43:56.899Z,9.70
2023-05-17T08:46:25.198Z,9.88
2023-05-17T08:48:59.986Z,10.43
2023-05-17T08:51:28.565Z,9.18
2023-05-17T08:53:56.304Z,9.57
2023-05-17T08:56:27.079Z,9.40
2023-05-17T08:58:58.127Z,9.30
2023-05-17T09:01:28.383Z,9.30
2023-05-17T09:03:57.136Z,9.50
2023-05-17T09:06:25.475Z,9.45
2023-05-17T09:08:54.534Z,10.73
2023-05-17T09:11:30.823Z,9.27
2023-05-17T09:14:02.043Z,10.20
2023-05-17T09:16:30.297Z,9.93
2023-05-17T09:18:59.639Z,9.02
2023-05-17T09:21:28.268Z,9.65
2023-05-17T09:24:06.374Z,10.18
2023-05-17T09:26:43.813Z,10.35
2023-05-17T09:29:12.141Z,9.82
2023-05-17T09:31:40.138Z,10.90
2023-05-17T09:34:08.745Z,10.50
2023-05-17T09:36:38.503Z,10.20
2023-05-17T09:39:10.766Z,11.13
2023-05-17T09:44:12.362Z,10.48
2023-05-17T09:46:42.919Z,11.05
2023-05-17T09:49:10.616Z,10.40
2023-05-17T09:51:40.951Z,10.55
2023-05-17T09:54:10.087Z,9.60
2023-05-17T09:56:38.075Z,10.13
2023-05-17T09:59:13.662Z,10.88
2023-05-17T10:01:42.233Z,10.48
2023-05-17T10:04:11.083Z,10.68
2023-05-17T10:09:14.598Z,10.73
2023-05-17T10:11:44.558Z,10.38
2023-05-17T10:14:18.494Z,10.93
2023-05-17T10:16:46.404Z,10.73
2023-05-17T10:19:14.796Z,10.32
2023-05-17T10:21:43.232Z,9.90
2023-05-17T10:24:12.540Z,10.88
2023-05-17T10:26:40.294Z,10.60
2023-05-17T10:29:08.611Z,10.35
2023-05-17T10:31:37.687Z,10.60
2023-05-17T10:34:06.427Z,10.75
2023-05-17T10:36:34.855Z,10.85
2023-05-17T10:39:03.006Z,10.43
2023-05-17T10:41:33.835Z,10.77
2023-05-17T10:44:03.199Z,10.13
2023-05-17T10:46:31.613Z,10.18
2023-05-17T10:49:02.166Z,10.50
2023-05-17T10:51:32.534Z,10.23
2023-05-17T10:54:11.579Z,10.10
2023-05-17T10:56:43.169Z,10.63
2023-05-17T10:59:18.546Z,11.45
2023-05-17T11:01:58.980Z,10.15
2023-05-17T11:04:31.763Z,10.30
2023-05-17T11:07:32.996Z,10.55
2023-05-17T11:10:07.106Z,10.80
2023-05-17T11:12:38.539Z,11.10
2023-05-17T11:15:09.102Z,10.52
2023-05-17T11:17:38.625Z,10.65
2023-05-17T11:20:13.503Z,9.77
2023-05-17T11:22:42.994Z,10.00
2023-05-17T11:25:13.278Z,9.65
2023-05-17T11:27:45.887Z,11.07
2023-05-17T11:30:22.979Z,10.05
2023-05-17T11:32:51.977Z,9.55
2023-05-17T11:35:24.918Z,10.30
2023-05-17T11:37:54.487Z,10.15
2023-05-17T11:40:29.223Z,10.43
2023-05-17T11:43:16.691Z,10.00
2023-05-17T11:45:46.019Z,10.32
2023-05-17T11:48:13.843Z,9.80
2023-05-17T11:50:43.568Z,9.93
2023-05-17T11:53:11.608Z,10.15
2023-05-17T11:55:40.133Z,10.25
2023-05-17T11:58:09.172Z,10.57
2023-05-17T12:00:38.676Z,10.23
2023-05-17T12:03:18.968Z,9.60
2023-05-17T12:05:49.950Z,10.48
2023-05-17T12:08:19.046Z,9.65
2023-05-17T12:10:50.324Z,10.05
2023-05-17T12:13:18.191Z,10.27
2023-05-17T12:15:49.112Z,10.40
2023-05-17T12:18:17.074Z,9.82
2023-05-17T12:20:59.315Z,10.45
2023-05-17T12:23:28.916Z,10.02
2023-05-17T12:26:07.216Z,10.20
2023-05-17T12:28:35.611Z,10.45
2023-05-17T12:31:04.084Z,9.82
2023-05-17T12:33:33.232Z,10.15
2023-05-17T12:36:03.537Z,10.57
2023-05-17T12:38:33.311Z,11.13
2023-05-17T12:41:04.625Z,10.20
2023-05-17T12:43:34.292Z,9.80
2023-05-17T12:46:07.682Z,10.45
2023-05-17T12:48:36.574Z,10.88
2023-05-17T12:51:11.746Z,10.50
2023-05-17T12:53:40.291Z,11.98
2023-05-17T12:56:08.662Z,10.82
2023-05-17T12:58:37.256Z,10.68
2023-05-17T13:01:07.015Z,10.30
2023-05-17T13:03:35.024Z,11.48
2023-05-17T13:06:04.569Z,10.95
2023-05-17T13:08:33.893Z,10.23
2023-05-17T13:11:08.777Z,10.45
2023-05-17T13:13:36.736Z,10.20
2023-05-17T13:16:04.552Z,10.60
2023-05-17T13:18:35.620Z,11.50
2023-05-17T13:21:03.824Z,10.87
2023-05-17T13:23:32.863Z,10.30
2023-05-17T13:26:00.510Z,9.95
2023-05-17T13:28:28.161Z,10.63
2023-05-17T13:30:56.000Z,11.50
2023-05-17T13:33:23.840Z,10.60
2023-05-17T13:35:51.607Z,11.00
2023-05-17T13:38:19.345Z,11.32
2023-05-17T13:40:48.376Z,10.60
2023-05-17T13:43:16.095Z,10.70
2023-05-17T13:45:43.784Z,10.50
2023-05-17T13:48:12.062Z,11.15
2023-05-17T13:50:40.918Z,11.23
2023-05-17T13:53:08.559Z,10.30
2023-05-17T13:55:36.273Z,10.15
2023-05-17T13:58:05.599Z,10.43
2023-05-17T14:00:33.302Z,10.55
2023-05-17T14:03:01.072Z,10.35
2023-05-17T14:05:28.894Z,10.80
2023-05-17T14:07:56.657Z,10.82
2023-05-17T14:10:24.289Z,11.48
2023-05-17T14:12:51.977Z,10.10
2023-05-17T14:15:21.099Z,10.50
2023-05-17T14:17:48.940Z,10.50
2023-05-17T14:20:16.918Z,10.30
2023-05-17T14:22:44.592Z,11.82
2023-05-17T14:25:12.523Z,10.38
2023-05-17T14:27:40.193Z,10.70
2023-05-17T14:30:10.194Z,10.60
2023-05-17T14:32:40.692Z,10.63
2023-05-17T14:35:09.200Z,10.88
2023-05-17T14:37:36.903Z,10.57
2023-05-17T14:40:06.808Z,10.00
2023-05-17T14:42:34.917Z,11.10
2023-05-17T14:45:02.767Z,10.13
2023-05-17T14:47:30.556Z,10.98
2023-05-17T14:49:59.851Z,10.23
2023-05-17T14:52:27.515Z,10.13
2023-05-17T14:54:55.213Z,11.30
2023-05-17T14:57:23.439Z,11.07
2023-05-17T14:59:51.085Z,11.27
2023-05-17T15:02:18.918Z,11.75
2023-05-17T15:04:47.540Z,11.55
2023-05-17T15:07:16.852Z,11.30
2023-05-17T15:09:44.675Z,11.57
2023-05-17T15:12:14.065Z,12.13
2023-05-17T15:14:42.002Z,11.15
2023-05-17T15:17:09.647Z,11.38
2023-05-17T15:19:37.416Z,11.50
2023-05-17T15:22:05.640Z,10.98
2023-05-17T15:24:34.858Z,10.95
2023-05-17T15:27:02.560Z,10.63
2023-05-17T15:29:31.251Z,10.93
2023-05-17T15:31:59.904Z,10.90
2023-05-17T15:34:29.157Z,10.88
2023-05-17T15:36:58.147Z,10.85
2023-05-17T15:39:25.814Z,11.18
2023-05-17T15:41:54.933Z,11.43
2023-05-17T15:44:23.895Z,11.25
2023-05-17T15:46:51.794Z,10.93
2023-05-17T15:49:19.654Z,11.65
2023-05-17T15:51:47.674Z,11.13
2023-05-17T15:54:15.876Z,11.20
2023-05-17T15:56:43.582Z,10.50
2023-05-17T15:59:12.604Z,11.60
2023-05-17T16:01:41.883Z,11.35
2023-05-17T16:04:09.594Z,11.32
2023-05-17T16:06:37.423Z,11.00
2023-05-17T16:09:05.332Z,10.68
2023-05-17T16:11:33.072Z,11.23
2023-05-17T16:14:00.770Z,12.27
2023-05-17T16:16:29.758Z,11.68
2023-05-17T16:18:58.572Z,11.02
2023-05-17T16:21:26.655Z,12.30
2023-05-17T16:23:54.318Z,11.35
2023-05-17T16:26:22.155Z,10.98
2023-05-17T16:28:50.668Z,11.93
2023-05-17T16:31:18.389Z,11.40
2023-05-17T16:33:47.565Z,11.55
2023-05-17T16:36:15.294Z,11.70
2023-05-17T16:38:43.015Z,11.25
2023-05-17T16:41:10.908Z,12.23
2023-05-17T16:43:38.537Z,11.27
2023-05-17T16:46:06.239Z,12.55
2023-05-17T16:48:33.976Z,12.50
2023-05-17T16:51:03.109Z,12.10
2023-05-17T16:53:30.820Z,12.35
2023-05-17T16:55:58.533Z,12.55
2023-05-17T16:58:27.046Z,14.30
2023-05-17T17:00:54.680Z,13.00
2023-05-17T17:03:22.585Z,13.20
2023-05-17T17:05:50.323Z,13.43
2023-05-17T17:08:19.365Z,13.25
2023-05-17T17:10:47.060Z,13.32
2023-05-17T17:13:15.067Z,13.45
2023-05-17T17:15:42.726Z,14.07
2023-05-17T17:18:10.452Z,14.35
2023-05-17T17:20:38.181Z,12.73
2023-05-17T17:23:06.486Z,12.35
2023-05-17T17:25:35.502Z,13.10
2023-05-17T17:28:03.150Z,13.40
2023-05-17T17:30:31.018Z,12.82
2023-05-17T17:32:59.050Z,12.60
2023-05-17T17:35:26.820Z,13.32
2023-05-17T17:37:54.465Z,12.57
2023-05-17T17:40:22.155Z,12.95
2023-05-17T17:42:51.288Z,12.18
2023-05-17T17:45:18.951Z,12.70
2023-05-17T17:47:46.659Z,12.90
2023-05-17T17:50:14.469Z,12.05
2023-05-17T17:52:42.163Z,12.05
2023-05-17T17:55:12.994Z,11.88
2023-05-17T17:57:41.661Z,11.65
2023-05-17T18:00:12.810Z,12.60
2023-05-17T18:02:40.577Z,11.30
2023-05-17T18:05:09.072Z,11.70
2023-05-17T18:07:36.760Z,11.32
2023-05-17T18:10:04.665Z,11.70
2023-05-17T18:12:32.499Z,11.65
2023-05-17T18:15:00.159Z,11.35
2023-05-17T18:17:29.443Z,11.38
2023-05-17T18:19:57.202Z,12.27
2023-05-17T18:22:24.933Z,11.50
2023-05-17T18:24:52.685Z,11.43
2023-05-17T18:27:20.433Z,12.55
2023-05-17T18:29:48.076Z,13.10
2023-05-17T18:32:15.791Z,11.93
2023-05-17T18:34:45.024Z,13.55
2023-05-17T18:37:12.843Z,12.43
2023-05-17T18:39:40.749Z,10.75
2023-05-17T18:42:08.546Z,10.50
2023-05-17T18:44:36.974Z,10.98
2023-05-17T18:47:04.786Z,11.13
2023-05-17T18:49:32.464Z,10.65
2023-05-17T18:52:01.478Z,10.25
2023-05-17T18:54:29.167Z,11.40
2023-05-17T18:56:56.805Z,12.02
2023-05-17T18:59:24.429Z,10.48
2023-05-17T19:01:52.119Z,11.43
2023-05-17T19:04:19.866Z,10.80
2023-05-17T19:06:47.573Z,11.73
2023-05-17T19:09:16.617Z,11.95
2023-05-17T19:11:44.291Z,10.32
2023-05-17T19:14:14.539Z,11.82
2023-05-17T19:16:42.261Z,11.95
2023-05-17T19:19:10.247Z,11.73
2023-05-17T19:21:38.036Z,11.05
2023-05-17T19:24:06.600Z,10.77
2023-05-17T19:26:35.865Z,11.02
2023-05-17T19:29:03.522Z,10.65
2023-05-17T19:31:31.222Z,10.77
2023-05-17T19:33:59.358Z,10.13
2023-05-17T19:36:27.039Z,11.15
2023-05-17T19:38:54.710Z,10.35
2023-05-17T19:41:22.969Z,10.38
2023-05-17T19:43:51.946Z,11.65
2023-05-17T19:46:19.674Z,10.60
2023-05-17T19:48:47.776Z,11.38
2023-05-17T19:51:15.437Z,11.00
2023-05-17T19:53:52.670Z,10.43
2023-05-17T19:56:23.650Z,11.18
2023-05-17T19:58:54.084Z,10.13
2023-05-17T20:01:22.429Z,10.95
2023-05-17T20:03:50.334Z,12.07
2023-05-17T20:06:18.067Z,10.93
2023-05-17T20:08:46.819Z,11.05
2023-05-17T20:11:14.748Z,10.43
2023-05-17T20:13:42.365Z,10.57
2023-05-17T20:16:13.535Z,10.27
2023-05-17T20:18:42.786Z,10.77
2023-05-17T20:21:11.263Z,11.48
2023-05-17T20:23:39.158Z,10.57
2023-05-17T20:26:06.821Z,10.32
2023-05-17T20:28:34.498Z,10.90
2023-05-17T20:31:02.546Z,10.65
2023-05-17T20:33:31.542Z,10.80
2023-05-17T20:35:59.436Z,10.15
2023-05-17T20:38:27.127Z,10.88
2023-05-17T20:40:55.473Z,10.25
2023-05-17T20:43:28.679Z,10.02
2023-05-17T20:45:56.494Z,10.48
2023-05-17T20:48:24.285Z,10.27
2023-05-17T20:50:53.285Z,9.82
2023-05-17T20:53:21.087Z,11.68
2023-05-17T20:55:49.333Z,11.90
2023-05-17T20:58:17.028Z,10.18
2023-05-17T21:00:44.730Z,10.10
2023-05-17T21:03:12.463Z,11.20
2023-05-17T21:05:40.467Z,11.30
2023-05-17T21:08:12.918Z,10.80
2023-05-17T21:10:42.754Z,10.50
2023-05-17T21:13:12.390Z,11.05
2023-05-17T21:15:40.048Z,11.50
2023-05-17T21:18:08.771Z,10.98
2023-05-17T21:20:36.726Z,10.50
2023-05-17T21:23:04.492Z,10.30
2023-05-17T21:25:34.063Z,10.80
2023-05-17T21:28:01.806Z,10.93
2023-05-17T21:30:29.688Z,10.43
2023-05-17T21:32:57.570Z,10.60
2023-05-17T21:35:25.251Z,10.50
2023-05-17T21:37:52.952Z,11.43
2023-05-17T21:40:20.637Z,11.32
2023-05-17T21:42:50.159Z,10.75
2023-05-17T21:45:17.789Z,10.70
2023-05-17T21:47:45.474Z,10.77
2023-05-17T21:50:13.180Z,11.85
2023-05-17T21:52:40.916Z,10.80
2023-05-17T21:55:09.770Z,10.70
2023-05-17T21:57:37.730Z,10.65
2023-05-17T22:00:12.564Z,10.70
2023-05-17T22:02:41.046Z,10.18
2023-05-17T22:05:09.331Z,10.57
2023-05-17T22:07:37.497Z,10.45
2023-05-17T22:10:08.744Z,10.68
2023-05-17T22:15:09.672Z,10.98
2023-05-17T22:17:47.969Z,11.05
2023-05-17T22:20:23.453Z,10.63
2023-05-17T22:22:51.412Z,10.82
2023-05-17T22:25:19.226Z,10.98
2023-05-17T22:27:46.909Z,10.98
2023-05-17T22:30:16.049Z,10.63
2023-05-17T22:32:43.802Z,11.10
2023-05-17T22:35:11.644Z,10.98
2023-05-17T22:37:42.372Z,10.77
2023-05-17T22:40:11.012Z,11.07
2023-05-17T22:42:38.835Z,11.35
2023-05-17T22:45:07.180Z,11.07
2023-05-17T22:47:36.568Z,10.95
2023-05-17T22:50:04.608Z,10.73
2023-05-17T22:52:32.673Z,10.52
2023-05-17T22:55:00.397Z,11.85
2023-05-17T22:57:28.224Z,11.05
2023-05-17T22:59:55.955Z,11.10
2023-05-17T23:02:23.641Z,10.77
2023-05-17T23:04:52.692Z,11.75
2023-05-17T23:07:20.927Z,11.07
2023-05-17T23:09:48.572Z,10.68
2023-05-17T23:12:17.459Z,10.82
2023-05-17T23:14:45.164Z,11.05
2023-05-17T23:17:12.841Z,10.02
2023-05-17T23:19:40.608Z,11.07
2023-05-17T23:22:10.743Z,11.82
2023-05-17T23:24:38.832Z,10.35
2023-05-17T23:27:09.824Z,10.38
2023-05-17T23:29:37.681Z,10.73
2023-05-17T23:32:05.690Z,10.82
2023-05-17T23:34:33.498Z,11.02
2023-05-17T23:37:01.304Z,10.80
2023-05-17T23:39:30.580Z,11.15
2023-05-17T23:41:58.279Z,10.90
2023-05-17T23:44:26.712Z,11.07
2023-05-17T23:46:54.930Z,11.18
2023-05-17T23:49:22.807Z,10.95
2023-05-17T23:51:50.641Z,11.52
2023-05-17T23:54:18.415Z,10.65
2023-05-17T23:56:47.414Z,11.15
2023-05-17T23:59:15.023Z,10.27
